createdAt,value
2022-10-13T00:00:45.205Z,0
2022-10-13T00:02:46.751Z,0
2022-10-13T00:04:48.187Z,0
2022-10-13T00:08:51.178Z,0
2022-10-13T00:10:52.782Z,0
2022-10-13T00:12:54.259Z,0
2022-10-13T00:14:55.983Z,0
2022-10-13T00:18:59.409Z,0
2022-10-13T00:21:00.864Z,0
2022-10-13T00:23:02.328Z,0
2022-10-13T00:25:04.053Z,0
2022-10-13T00:27:05.175Z,0
2022-10-13T00:29:07.045Z,0
2022-10-13T00:31:08.630Z,0
2022-10-13T00:33:10.364Z,0
2022-10-13T00:35:12.309Z,0
2022-10-13T00:37:13.934Z,0
2022-10-13T00:41:16.845Z,0
2022-10-13T00:43:18.593Z,0
2022-10-13T00:45:20.019Z,0
2022-10-13T00:47:21.297Z,0
2022-10-13T00:51:23.791Z,0
2022-10-13T00:53:25.765Z,0
2022-10-13T00:55:27.102Z,0
2022-10-13T00:57:28.477Z,0
2022-10-13T01:01:31.535Z,0
2022-10-13T01:03:33.335Z,0
2022-10-13T01:05:34.862Z,0
2022-10-13T01:07:36.794Z,0
2022-10-13T01:09:38.024Z,0
2022-10-13T01:11:39.473Z,0
2022-10-13T01:13:40.683Z,0
2022-10-13T01:15:42.172Z,0
2022-10-13T01:17:44.052Z,0
2022-10-13T01:19:45.301Z,0
2022-10-13T01:21:46.745Z,0
2022-10-13T01:23:48.167Z,0
2022-10-13T01:25:49.699Z,0
2022-10-13T01:27:51.560Z,0
2022-10-13T01:29:52.897Z,0.982
2022-10-13T01:31:54.117Z,0
2022-10-13T01:33:55.438Z,0
2022-10-13T01:35:57.175Z,1.404
2022-10-13T01:37:58.485Z,0
2022-10-13T01:39:59.777Z,0
2022-10-13T01:42:01.263Z,0
2022-10-13T01:44:03.019Z,0
2022-10-13T01:46:04.035Z,0
2022-10-13T01:48:05.188Z,0
2022-10-13T01:50:06.770Z,0
2022-10-13T01:52:08.379Z,0
2022-10-13T01:54:09.920Z,0
2022-10-13T01:56:11.645Z,0
2022-10-13T01:58:13.480Z,0
2022-10-13T02:00:14.646Z,0
2022-10-13T02:02:16.669Z,0
2022-10-13T02:04:17.638Z,0
2022-10-13T02:06:19.339Z,0
2022-10-13T02:08:20.640Z,0
2022-10-13T02:10:21.970Z,0
2022-10-13T02:12:23.484Z,0
2022-10-13T02:14:25.402Z,0
2022-10-13T02:16:26.404Z,0
2022-10-13T02:18:27.463Z,0
2022-10-13T02:20:28.721Z,0
2022-10-13T02:22:29.842Z,0
2022-10-13T02:24:31.062Z,0
2022-10-13T02:26:32.443Z,0
2022-10-13T02:28:34.110Z,0
2022-10-13T02:30:35.362Z,0
2022-10-13T02:32:36.383Z,0
2022-10-13T02:34:37.840Z,0
2022-10-13T02:36:39.395Z,0
2022-10-13T02:38:41.217Z,0
2022-10-13T02:40:42.810Z,0
2022-10-13T02:42:44.069Z,0
2022-10-13T02:44:45.238Z,0
2022-10-13T02:46:46.800Z,0
2022-10-13T02:48:48.217Z,0
2022-10-13T02:50:49.751Z,0
2022-10-13T02:52:50.922Z,0
2022-10-13T02:54:52.726Z,0
2022-10-13T02:56:54.521Z,0
2022-10-13T02:58:56.290Z,0
2022-10-13T03:00:57.691Z,0
2022-10-13T03:02:59.068Z,0
2022-10-13T03:05:00.886Z,0
2022-10-13T03:07:02.541Z,0
2022-10-13T03:09:04.310Z,0
2022-10-13T03:11:05.859Z,0
2022-10-13T03:13:07.197Z,0
2022-10-13T03:15:08.389Z,0
2022-10-13T03:17:13.236Z,0
2022-10-13T03:19:10.934Z,0
2022-10-13T03:21:12.507Z,0
2022-10-13T03:25:15.103Z,0
2022-10-13T03:27:16.527Z,0
2022-10-13T03:29:17.735Z,0
2022-10-13T03:31:19.550Z,0
2022-10-13T03:33:20.643Z,0
2022-10-13T03:35:21.943Z,0
2022-10-13T03:37:23.336Z,0
2022-10-13T03:39:24.971Z,0
2022-10-13T03:41:26.221Z,0
2022-10-13T03:43:27.464Z,0
2022-10-13T03:45:28.799Z,0
2022-10-13T03:47:30.238Z,0
2022-10-13T03:49:31.982Z,0
2022-10-13T03:51:33.782Z,0
2022-10-13T03:53:35.726Z,0
2022-10-13T03:57:38.690Z,0
2022-10-13T03:59:40.593Z,0
2022-10-13T04:01:42.161Z,0
2022-10-13T04:03:43.613Z,0
2022-10-13T04:07:46.043Z,0
2022-10-13T04:09:47.484Z,0
2022-10-13T04:11:48.579Z,0
2022-10-13T04:13:50.082Z,0
2022-10-13T04:15:51.173Z,0
2022-10-13T04:17:52.564Z,0
2022-10-13T04:19:53.593Z,0
2022-10-13T04:21:54.979Z,0
2022-10-13T04:23:56.252Z,0
2022-10-13T04:25:57.240Z,0
2022-10-13T04:27:58.890Z,0
2022-10-13T04:30:00.395Z,0
2022-10-13T04:32:01.547Z,0
2022-10-13T04:34:03.339Z,0
2022-10-13T04:36:04.815Z,0
2022-10-13T04:38:06.413Z,0
2022-10-13T04:40:07.978Z,0
2022-10-13T04:42:09.749Z,0
2022-10-13T04:44:10.725Z,0
2022-10-13T04:46:11.717Z,0
2022-10-13T04:48:12.811Z,0
2022-10-13T04:50:14.244Z,0
2022-10-13T04:52:15.385Z,0
2022-10-13T04:56:18.767Z,0
2022-10-13T04:58:20.179Z,0
2022-10-13T05:00:22.012Z,0
2022-10-13T05:02:22.998Z,0
2022-10-13T05:06:25.759Z,0
2022-10-13T05:08:27.053Z,0
2022-10-13T05:10:31.295Z,0
2022-10-13T05:12:29.577Z,0
2022-10-13T05:14:30.960Z,0
2022-10-13T05:16:32.538Z,0
2022-10-13T05:18:34.247Z,0
2022-10-13T05:20:35.298Z,0
2022-10-13T05:22:36.429Z,0
2022-10-13T05:24:37.856Z,0
2022-10-13T05:26:39.458Z,0
2022-10-13T05:28:41.020Z,0
2022-10-13T05:30:42.800Z,0
2022-10-13T05:32:44.511Z,0
2022-10-13T05:34:45.760Z,0
2022-10-13T05:38:47.840Z,0
2022-10-13T05:40:49.444Z,0
2022-10-13T05:42:51.201Z,0
2022-10-13T05:44:52.211Z,0
2022-10-13T05:48:54.559Z,0
2022-10-13T05:50:56.105Z,0
2022-10-13T05:52:57.680Z,0
2022-10-13T05:54:58.993Z,0
2022-10-13T05:56:59.973Z,0
2022-10-13T05:59:01.317Z,0
2022-10-13T06:01:02.552Z,0
2022-10-13T06:03:03.477Z,0
2022-10-13T06:05:04.896Z,0
2022-10-13T06:07:06.029Z,0
2022-10-13T06:09:07.431Z,0
2022-10-13T06:11:09.164Z,0
2022-10-13T06:13:10.511Z,0
2022-10-13T06:15:11.837Z,0
2022-10-13T06:17:13.748Z,0
2022-10-13T06:21:17.073Z,0
2022-10-13T06:23:18.158Z,0
2022-10-13T06:24:01.984Z,0
2022-10-13T06:26:02.941Z,0
2022-10-13T06:28:04.907Z,0
2022-10-13T06:30:06.253Z,0
2022-10-13T06:32:07.434Z,0
2022-10-13T06:34:09.264Z,0
2022-10-13T06:36:11.193Z,0
2022-10-13T06:38:12.150Z,0
2022-10-13T06:40:13.884Z,0
2022-10-13T06:42:14.981Z,0
2022-10-13T06:44:16.007Z,0
2022-10-13T06:46:17.217Z,0
2022-10-13T06:48:18.145Z,0
2022-10-13T06:50:19.505Z,0
2022-10-13T06:52:21.491Z,0.421
2022-10-13T06:54:22.107Z,0.14
2022-10-13T06:58:25.142Z,0
2022-10-13T07:00:26.861Z,0
2022-10-13T07:02:27.858Z,0
2022-10-13T07:04:29.322Z,0
2022-10-13T07:06:30.623Z,0
2022-10-13T07:08:31.781Z,0
2022-10-13T07:10:33.584Z,0
2022-10-13T07:12:35.343Z,0
2022-10-13T07:14:37.334Z,0
2022-10-13T07:16:38.324Z,0
2022-10-13T07:18:39.993Z,0
2022-10-13T07:20:40.973Z,0
2022-10-13T07:22:42.231Z,0.28
2022-10-13T07:24:43.655Z,0
2022-10-13T07:26:44.838Z,1.684
2022-10-13T07:28:46.644Z,0
2022-10-13T07:30:48.277Z,0
2022-10-13T07:32:49.518Z,0
2022-10-13T07:34:50.611Z,0
2022-10-13T07:36:52.022Z,0
2022-10-13T07:38:53.221Z,0
2022-10-13T07:40:54.693Z,0
2022-10-13T07:42:56.428Z,0
2022-10-13T07:44:57.504Z,0
2022-10-13T07:46:58.950Z,0
2022-10-13T07:49:00.717Z,0
2022-10-13T07:51:01.643Z,0
2022-10-13T07:53:02.641Z,0
2022-10-13T07:57:05.290Z,0
2022-10-13T07:59:06.861Z,0
2022-10-13T08:01:08.658Z,0
2022-10-13T08:03:10.365Z,0
2022-10-13T08:07:12.844Z,0
2022-10-13T08:09:13.730Z,0
2022-10-13T08:11:16.372Z,0
2022-10-13T08:13:16.518Z,0
2022-10-13T08:15:17.514Z,0
2022-10-13T08:17:19.172Z,0
2022-10-13T08:19:19.953Z,0
2022-10-13T08:21:53.127Z,0
2022-10-13T08:23:22.875Z,0.421
2022-10-13T08:25:24.424Z,0
2022-10-13T08:27:32.714Z,1.123
2022-10-13T08:29:27.341Z,0.982
2022-10-13T08:31:29.160Z,0.982
2022-10-13T08:33:30.776Z,3.51
2022-10-13T08:35:34.174Z,1.684
2022-10-13T08:37:32.968Z,1.123
2022-10-13T08:39:34.288Z,1.263
2022-10-13T08:41:35.612Z,2.527
2022-10-13T08:43:41.766Z,3.229
2022-10-13T08:45:41.598Z,3.088
2022-10-13T08:49:42.535Z,2.527
2022-10-13T08:51:44.126Z,0.842
2022-10-13T08:53:45.480Z,1.263
2022-10-13T08:55:47.275Z,2.948
2022-10-13T08:57:49.024Z,2.808
2022-10-13T08:59:50.407Z,1.123
2022-10-13T09:01:51.385Z,3.229
2022-10-13T09:03:53.135Z,0.982
2022-10-13T09:05:54.818Z,2.948
2022-10-13T09:07:56.473Z,1.123
2022-10-13T09:09:57.644Z,3.79
2022-10-13T09:11:59.147Z,1.965
2022-10-13T09:14:00.767Z,2.527
2022-10-13T09:16:02.182Z,3.931
2022-10-13T09:18:03.131Z,0
2022-10-13T09:20:04.415Z,1.684
2022-10-13T09:22:06.231Z,0.561
2022-10-13T09:24:07.902Z,3.088
2022-10-13T09:26:08.812Z,2.948
2022-10-13T09:28:09.658Z,0.421
2022-10-13T09:30:10.820Z,2.246
2022-10-13T09:32:12.184Z,1.965
2022-10-13T09:34:13.923Z,2.246
2022-10-13T09:36:15.342Z,0.561
2022-10-13T09:38:17.048Z,0.28
2022-10-13T09:40:18.294Z,0.14
2022-10-13T09:42:20.036Z,0.421
2022-10-13T09:44:23.147Z,0.561
2022-10-13T09:46:22.735Z,1.825
2022-10-13T09:48:24.377Z,0.561
2022-10-13T09:50:33.771Z,1.825
2022-10-13T09:52:27.274Z,1.965
2022-10-13T09:54:28.166Z,0.14
2022-10-13T09:56:29.102Z,0.702
2022-10-13T09:58:30.118Z,2.948
2022-10-13T10:00:31.092Z,0.842
2022-10-13T10:02:33.158Z,1.825
2022-10-13T10:04:34.000Z,2.246
2022-10-13T10:06:35.079Z,1.825
2022-10-13T10:08:51.211Z,0.842
2022-10-13T10:10:37.949Z,1.965
2022-10-13T10:12:39.005Z,2.948
2022-10-13T10:14:40.210Z,3.51
2022-10-13T10:16:41.612Z,2.386
2022-10-13T10:20:44.823Z,1.684
2022-10-13T10:22:46.378Z,0.14
2022-10-13T10:24:47.589Z,1.263
2022-10-13T10:26:48.947Z,2.948
2022-10-13T10:30:51.893Z,1.123
2022-10-13T10:32:53.160Z,0.14
2022-10-13T10:34:54.646Z,0
2022-10-13T10:36:55.649Z,2.386
2022-10-13T10:38:56.529Z,0
2022-10-13T10:42:58.557Z,0
2022-10-13T10:44:59.617Z,6.739
2022-10-13T10:47:00.376Z,3.229
2022-10-13T10:49:01.621Z,1.404
2022-10-13T10:51:02.534Z,4.212
2022-10-13T10:53:03.863Z,4.773
2022-10-13T10:55:05.522Z,2.808
2022-10-13T10:57:06.616Z,1.263
2022-10-13T10:59:07.932Z,3.79
2022-10-13T11:01:09.195Z,1.825
2022-10-13T11:03:10.386Z,2.527
2022-10-13T11:05:11.858Z,3.229
2022-10-13T11:07:13.230Z,0.702
2022-10-13T11:09:14.835Z,2.948
2022-10-13T11:11:16.468Z,3.369
2022-10-13T11:13:17.819Z,4.352
2022-10-13T11:15:19.279Z,3.088
2022-10-13T11:17:20.299Z,1.825
2022-10-13T11:19:21.630Z,3.369
2022-10-13T11:21:22.599Z,2.667
2022-10-13T11:23:24.329Z,5.194
2022-10-13T11:25:26.034Z,3.088
2022-10-13T11:27:27.028Z,4.212
2022-10-13T11:29:28.854Z,1.404
2022-10-13T11:31:32.172Z,2.246
2022-10-13T11:33:31.965Z,2.106
2022-10-13T11:35:32.753Z,1.544
2022-10-13T11:37:34.017Z,2.527
2022-10-13T11:39:35.408Z,2.527
2022-10-13T11:41:36.761Z,0.982
2022-10-13T11:43:38.274Z,2.246
2022-10-13T11:45:39.924Z,3.369
2022-10-13T11:47:40.867Z,2.808
2022-10-13T11:49:41.913Z,0
2022-10-13T11:51:43.244Z,1.684
2022-10-13T11:53:44.497Z,3.65
2022-10-13T11:55:45.987Z,2.808
2022-10-13T11:57:47.025Z,2.948
2022-10-13T12:01:50.043Z,1.263
2022-10-13T12:03:51.139Z,1.825
2022-10-13T12:05:52.516Z,0.842
2022-10-13T12:07:53.679Z,4.071
2022-10-13T12:11:57.066Z,2.246
2022-10-13T12:13:57.782Z,2.246
2022-10-13T12:15:59.039Z,1.684
2022-10-13T12:18:00.242Z,2.106
2022-10-13T12:20:01.710Z,5.475
2022-10-13T12:22:03.139Z,2.948
2022-10-13T12:24:04.803Z,1.404
2022-10-13T12:26:06.463Z,0.28
2022-10-13T12:28:08.225Z,1.263
2022-10-13T12:30:10.043Z,2.106
2022-10-13T12:32:11.477Z,3.65
2022-10-13T12:34:12.939Z,2.386
2022-10-13T12:36:14.322Z,0.28
2022-10-13T12:38:15.577Z,0.14
2022-10-13T12:40:16.786Z,1.684
2022-10-13T12:44:19.774Z,0.982
2022-10-13T12:46:21.205Z,0.14
2022-10-13T12:50:24.129Z,0.28
2022-10-13T12:54:26.485Z,1.263
2022-10-13T12:56:27.543Z,1.123
2022-10-13T12:58:28.764Z,0
2022-10-13T13:00:29.819Z,2.106
2022-10-13T13:02:30.844Z,1.123
2022-10-13T13:04:31.840Z,0
2022-10-13T13:06:32.774Z,0
2022-10-13T13:08:34.039Z,0
2022-10-13T13:09:17.743Z,2.246
2022-10-13T13:11:18.701Z,0.702
2022-10-13T13:13:20.505Z,0.702
2022-10-13T13:15:21.975Z,1.825
2022-10-13T13:17:38.763Z,0
2022-10-13T13:19:23.984Z,0.14
2022-10-13T13:21:25.532Z,1.404
2022-10-13T13:23:27.161Z,0
2022-10-13T13:25:28.342Z,0.982
2022-10-13T13:27:29.805Z,0.421
2022-10-13T13:29:31.026Z,0
2022-10-13T13:31:31.962Z,0
2022-10-13T13:33:33.129Z,0
2022-10-13T13:37:35.442Z,0
2022-10-13T13:39:37.159Z,0
2022-10-13T13:41:38.688Z,0
2022-10-13T13:43:39.992Z,3.088
2022-10-13T13:47:42.710Z,0
2022-10-13T13:49:43.766Z,0
2022-10-13T13:51:45.217Z,0.421
2022-10-13T13:53:46.357Z,0.14
2022-10-13T13:55:47.657Z,0
2022-10-13T13:57:48.755Z,0.421
2022-10-13T13:59:50.527Z,0.982
2022-10-13T14:01:52.069Z,2.246
2022-10-13T14:03:53.094Z,1.404
2022-10-13T14:05:54.465Z,2.106
2022-10-13T14:07:56.320Z,0.561
2022-10-13T14:09:59.284Z,0.561
2022-10-13T14:11:58.979Z,2.527
2022-10-13T14:14:00.055Z,0
2022-10-13T14:16:01.117Z,0
2022-10-13T14:20:03.412Z,0.561
2022-10-13T14:22:08.566Z,0
2022-10-13T14:24:06.064Z,0
2022-10-13T14:26:06.961Z,0
2022-10-13T14:30:09.238Z,0
2022-10-13T14:32:10.492Z,0
2022-10-13T14:34:12.189Z,0
2022-10-13T14:36:13.485Z,0
2022-10-13T14:38:15.226Z,0.14
2022-10-13T14:40:16.822Z,0.14
2022-10-13T14:42:18.198Z,0
2022-10-13T14:44:19.242Z,0
2022-10-13T14:46:20.479Z,0.28
2022-10-13T14:48:24.738Z,0
2022-10-13T14:50:22.562Z,0
2022-10-13T14:52:23.991Z,0
2022-10-13T14:54:25.651Z,1.123
2022-10-13T14:56:27.380Z,0
2022-10-13T14:58:28.564Z,3.088
2022-10-13T15:00:30.242Z,0.561
2022-10-13T15:02:31.922Z,1.123
2022-10-13T15:04:33.707Z,2.667
2022-10-13T15:06:35.527Z,0.14
2022-10-13T15:08:37.332Z,0
2022-10-13T15:10:38.506Z,0.421
2022-10-13T15:12:39.659Z,0.14
2022-10-13T15:14:40.912Z,0
2022-10-13T15:16:42.330Z,1.123
2022-10-13T15:18:44.012Z,3.088
2022-10-13T15:20:45.181Z,4.212
2022-10-13T15:22:47.039Z,3.369
2022-10-13T15:24:48.692Z,0.421
2022-10-13T15:26:49.735Z,1.123
2022-10-13T15:28:51.464Z,1.263
2022-10-13T15:30:53.224Z,0.982
2022-10-13T15:32:54.933Z,1.404
2022-10-13T15:34:55.887Z,2.246
2022-10-13T15:36:57.283Z,4.212
2022-10-13T15:38:59.112Z,0
2022-10-13T15:41:00.950Z,2.246
2022-10-13T15:43:02.742Z,1.544
2022-10-13T15:45:09.813Z,1.263
2022-10-13T15:47:08.097Z,2.386
2022-10-13T15:49:06.474Z,0
2022-10-13T15:51:07.680Z,0.28
2022-10-13T15:53:08.965Z,0
2022-10-13T15:55:09.889Z,0.14
2022-10-13T15:57:11.395Z,2.246
2022-10-13T16:01:14.146Z,1.263
2022-10-13T16:03:15.039Z,0
2022-10-13T16:05:16.530Z,0.14
2022-10-13T16:07:18.224Z,0
2022-10-13T16:11:21.213Z,0
2022-10-13T16:13:22.281Z,0
2022-10-13T16:15:23.297Z,0.421
2022-10-13T16:17:25.031Z,0.702
2022-10-13T16:19:26.691Z,0.561
2022-10-13T16:21:28.151Z,0.28
2022-10-13T16:23:29.666Z,0.421
2022-10-13T16:25:31.123Z,0
2022-10-13T16:27:32.864Z,1.684
2022-10-13T16:29:34.565Z,0
2022-10-13T16:31:35.899Z,0
2022-10-13T16:33:37.136Z,0
2022-10-13T16:35:38.829Z,0
2022-10-13T16:37:40.459Z,0
2022-10-13T16:39:43.856Z,0
2022-10-13T16:41:43.280Z,0
2022-10-13T16:43:44.630Z,0
2022-10-13T16:45:58.947Z,0
2022-10-13T16:47:46.720Z,0
2022-10-13T16:49:47.620Z,0
2022-10-13T16:51:49.055Z,0
2022-10-13T16:53:50.093Z,0
2022-10-13T16:55:51.416Z,0
2022-10-13T16:57:53.249Z,0
2022-10-13T16:59:54.184Z,0
2022-10-13T17:01:56.007Z,0
2022-10-13T17:03:57.259Z,0
2022-10-13T17:05:58.635Z,0
2022-10-13T17:08:00.331Z,0
2022-10-13T17:10:01.537Z,0
2022-10-13T17:12:03.158Z,0
2022-10-13T17:14:04.458Z,0
2022-10-13T17:16:05.578Z,0
2022-10-13T17:18:07.143Z,0
2022-10-13T17:20:08.439Z,0
2022-10-13T17:22:10.230Z,0
2022-10-13T17:24:12.099Z,0
2022-10-13T17:26:13.748Z,0
2022-10-13T17:28:15.226Z,0
2022-10-13T17:32:17.899Z,0
2022-10-13T17:34:19.150Z,0
2022-10-13T17:36:20.892Z,0
2022-10-13T17:38:22.756Z,0
2022-10-13T17:42:25.857Z,0
2022-10-13T17:44:27.538Z,0
2022-10-13T17:46:36.674Z,0
2022-10-13T17:48:30.365Z,0
2022-10-13T17:50:32.058Z,0
2022-10-13T17:52:33.544Z,0
2022-10-13T17:54:35.061Z,0
2022-10-13T17:56:36.861Z,0
2022-10-13T17:58:38.468Z,0
2022-10-13T18:01:07.886Z,0
2022-10-13T18:02:41.359Z,0
2022-10-13T18:04:42.851Z,0
2022-10-13T18:06:44.222Z,0
2022-10-13T18:08:45.128Z,0
2022-10-13T18:11:06.965Z,0
2022-10-13T18:14:48.790Z,0
2022-10-13T18:16:50.481Z,0
2022-10-13T18:18:51.798Z,0
2022-10-13T18:20:53.676Z,0
2022-10-13T18:22:54.975Z,0
2022-10-13T18:24:57.165Z,0
2022-10-13T18:26:57.146Z,0
2022-10-13T18:28:58.688Z,0
2022-10-13T18:31:00.152Z,0
2022-10-13T18:33:01.698Z,0
2022-10-13T18:35:02.671Z,0
2022-10-13T18:37:04.297Z,0
2022-10-13T18:39:05.246Z,0
2022-10-13T18:41:06.745Z,0
2022-10-13T18:43:08.383Z,0
2022-10-13T18:45:09.967Z,0
2022-10-13T18:47:11.507Z,0
2022-10-13T18:49:13.231Z,0
2022-10-13T18:51:15.072Z,0
2022-10-13T18:53:16.934Z,0
2022-10-13T18:57:19.953Z,0
2022-10-13T18:59:20.735Z,0
2022-10-13T19:01:21.889Z,0
2022-10-13T19:03:23.009Z,0
2022-10-13T19:05:24.723Z,0
2022-10-13T19:07:26.115Z,0
2022-10-13T19:09:27.418Z,0
2022-10-13T19:11:28.996Z,0
2022-10-13T19:13:30.391Z,0
2022-10-13T19:15:31.656Z,0
2022-10-13T19:17:32.569Z,0
2022-10-13T19:19:33.715Z,0
2022-10-13T19:21:35.564Z,0
2022-10-13T19:23:37.292Z,0
2022-10-13T19:25:39.042Z,0
2022-10-13T19:27:40.575Z,0
2022-10-13T19:29:42.031Z,0
2022-10-13T19:31:43.638Z,0
2022-10-13T19:33:45.089Z,0
2022-10-13T19:35:46.002Z,0
2022-10-13T19:37:47.302Z,0
2022-10-13T19:39:48.928Z,0
2022-10-13T19:41:50.321Z,0
2022-10-13T19:43:51.242Z,0
2022-10-13T19:45:55.171Z,0
2022-10-13T19:47:54.041Z,0
2022-10-13T19:49:55.029Z,0
2022-10-13T19:51:56.114Z,0
2022-10-13T19:54:41.292Z,0
2022-10-13T19:56:43.151Z,0
2022-10-13T19:58:44.458Z,0
2022-10-13T20:00:45.494Z,0
2022-10-13T20:02:46.956Z,0
2022-10-13T20:04:48.819Z,0
2022-10-13T20:06:50.044Z,0
2022-10-13T20:08:51.303Z,0
2022-10-13T20:10:52.595Z,0
2022-10-13T20:12:53.809Z,0
2022-10-13T20:14:55.439Z,0.14
2022-10-13T20:16:56.660Z,1.544
2022-10-13T20:18:58.180Z,0
2022-10-13T20:23:00.590Z,0
2022-10-13T20:25:01.741Z,0
2022-10-13T20:27:03.580Z,0.28
2022-10-13T20:29:05.350Z,0
2022-10-13T20:33:07.312Z,0
2022-10-13T20:35:08.997Z,0
2022-10-13T20:37:10.831Z,0
2022-10-13T20:39:11.942Z,0
2022-10-13T20:43:15.064Z,0
2022-10-13T20:45:16.822Z,0
2022-10-13T20:47:18.441Z,0
2022-10-13T20:49:19.409Z,0
2022-10-13T20:51:21.245Z,0
2022-10-13T20:53:22.506Z,0
2022-10-13T20:55:23.593Z,0
2022-10-13T20:57:24.514Z,0
2022-10-13T20:59:26.308Z,0
2022-10-13T21:01:27.496Z,0
2022-10-13T21:03:28.924Z,0
2022-10-13T21:05:30.401Z,0
2022-10-13T21:07:31.888Z,0
2022-10-13T21:09:33.158Z,0
2022-10-13T21:11:34.371Z,0
2022-10-13T21:13:35.360Z,0
2022-10-13T21:15:36.330Z,0
2022-10-13T21:17:41.724Z,0
2022-10-13T21:19:39.589Z,0
2022-10-13T21:21:41.095Z,0
2022-10-13T21:23:42.360Z,0
2022-10-13T21:25:43.385Z,0
2022-10-13T21:27:45.202Z,0
2022-10-13T21:29:46.835Z,0
2022-10-13T21:31:48.598Z,0
2022-10-13T21:33:49.591Z,0
2022-10-13T21:35:51.456Z,0
2022-10-13T21:37:53.177Z,0
2022-10-13T21:39:54.503Z,0
2022-10-13T21:41:56.369Z,0
2022-10-13T21:43:57.298Z,0
2022-10-13T21:45:58.323Z,0
2022-10-13T21:47:59.513Z,0
2022-10-13T21:50:00.876Z,0
2022-10-13T21:52:02.021Z,0
2022-10-13T21:54:02.987Z,0
2022-10-13T21:56:03.861Z,0
2022-10-13T21:58:05.727Z,0
2022-10-13T22:00:07.207Z,0
2022-10-13T22:02:08.320Z,0
2022-10-13T22:04:10.158Z,0
2022-10-13T22:06:14.581Z,0
2022-10-13T22:08:12.579Z,0
2022-10-13T22:10:13.809Z,0
2022-10-13T22:14:16.148Z,0
2022-10-13T22:16:17.332Z,0
2022-10-13T22:18:18.569Z,0
2022-10-13T22:20:19.948Z,0
2022-10-13T22:24:22.331Z,0
2022-10-13T22:26:24.181Z,0
2022-10-13T22:28:26.113Z,0
2022-10-13T22:30:27.603Z,0
2022-10-13T22:32:29.126Z,0
2022-10-13T22:34:30.538Z,0
2022-10-13T22:36:31.486Z,0
2022-10-13T22:38:33.276Z,0
2022-10-13T22:40:35.164Z,0
2022-10-13T22:42:36.790Z,0
2022-10-13T22:44:38.047Z,1.263
2022-10-13T22:46:39.712Z,0
2022-10-13T22:48:41.729Z,0
2022-10-13T22:50:42.335Z,0.842
2022-10-13T22:52:43.941Z,0.561
2022-10-13T22:54:44.984Z,0.561
2022-10-13T22:56:46.035Z,0.561
2022-10-13T22:58:47.362Z,1.544
2022-10-13T23:00:48.820Z,0.421
2022-10-13T23:02:49.756Z,3.088
2022-10-13T23:06:52.103Z,2.386
2022-10-13T23:08:53.177Z,1.684
2022-10-13T23:10:54.844Z,0
2022-10-13T23:12:56.027Z,0.421
2022-10-13T23:14:57.481Z,0
2022-10-13T23:16:58.589Z,3.51
2022-10-13T23:19:00.429Z,0.842
2022-10-13T23:21:02.211Z,0.421
2022-10-13T23:23:03.976Z,2.667
2022-10-13T23:25:05.746Z,1.684
2022-10-13T23:27:06.846Z,2.386
2022-10-13T23:29:08.007Z,1.684
2022-10-13T23:31:09.680Z,1.404
2022-10-13T23:33:11.100Z,1.825
2022-10-13T23:35:12.510Z,1.825
2022-10-13T23:37:14.372Z,1.965
2022-10-13T23:39:15.491Z,0.842
2022-10-13T23:41:16.884Z,0.14
2022-10-13T23:43:18.065Z,0
2022-10-13T23:45:19.630Z,0.28
2022-10-13T23:47:20.838Z,0
2022-10-13T23:49:21.965Z,0
2022-10-13T23:51:23.685Z,0
2022-10-13T23:53:25.473Z,0.842
2022-10-13T23:55:26.972Z,0.14
2022-10-13T23:57:28.197Z,0
2022-10-13T23:59:29.283Z,0
